Time;durP1;ratioP1;P1;durP2;ratioP2;P2;SDS_P1;SDS_P2;PMS_P1;PMS_P2;Temp;Humidity;BMP_temperature;BMP_pressure;BME280_temperature;BME280_humidity;BME280_pressure;Samples;Min_cycle;Max_cycle;Signal;HPM_P1;HPM_P2
2022/02/24 00:01:22;;;;;;;5.57;3.10;;;2.90;91.20;;;;;;6161865;23;20178;-85
2022/02/24 00:03:49;;;;;;;4.93;3.40;;;2.80;91.20;;;;;;6160920;23;20210;-85
2022/02/24 00:06:22;;;;;;;5.97;3.20;;;2.80;91.20;;;;;;6161904;23;20175;-85
2022/02/24 00:09:07;;;;;;;6.47;3.30;;;2.80;91.10;;;;;;6161024;23;20206;-86
2022/02/24 00:11:35;;;;;;;4.63;3.37;;;2.70;91.20;;;;;;6160790;23;20167;-85
2022/02/24 00:14:02;;;;;;;7.63;3.50;;;2.60;91.10;;;;;;6160785;23;20282;-85
2022/02/24 00:16:29;;;;;;;6.47;3.57;;;2.50;91.60;;;;;;6161595;23;20199;-86
2022/02/24 00:18:56;;;;;;;5.83;3.53;;;2.40;91.80;;;;;;6135746;23;20685;-84
2022/02/24 00:21:24;;;;;;;7.07;2.73;;;2.30;92.50;;;;;;6162147;23;20210;-86
2022/02/24 00:23:52;;;;;;;4.00;2.60;;;2.20;93.10;;;;;;6161410;23;20230;-85
2022/02/24 00:26:19;;;;;;;3.70;2.50;;;2.20;94.20;;;;;;6162124;23;20176;-85
2022/02/24 00:28:45;;;;;;;4.40;2.57;;;2.20;94.50;;;;;;6160322;23;20663;-85
2022/02/24 00:31:12;;;;;;;3.20;2.00;;;2.30;94.90;;;;;;6161742;23;20227;-85
2022/02/24 00:33:39;;;;;;;4.50;2.33;;;2.30;95.20;;;;;;6135517;23;20207;-85
2022/02/24 00:36:07;;;;;;;4.77;2.17;;;2.40;95.00;;;;;;6161128;23;20262;-85
2022/02/24 00:38:36;;;;;;;3.93;2.40;;;2.50;95.00;;;;;;6160896;23;20254;-85
2022/02/24 00:41:03;;;;;;;2.80;2.10;;;2.50;94.50;;;;;;6162106;23;20532;-85
2022/02/24 00:43:29;;;;;;;3.23;2.30;;;2.50;94.50;;;;;;6162907;23;20221;-85
2022/02/24 00:45:56;;;;;;;2.17;1.90;;;2.50;94.70;;;;;;6163285;23;20214;-85
2022/02/24 00:48:23;;;;;;;4.70;1.97;;;2.50;94.50;;;;;;6162135;23;20199;-85
2022/02/24 00:50:58;;;;;;;2.80;1.87;;;2.50;94.50;;;;;;6163648;23;20203;-85
2022/02/24 00:53:25;;;;;;;3.60;2.20;;;2.50;94.50;;;;;;6162442;23;20237;-85
2022/02/24 00:55:53;;;;;;;5.67;2.07;;;2.60;94.90;;;;;;6163210;23;20237;-85
2022/02/24 00:58:21;;;;;;;2.47;1.97;;;2.60;94.80;;;;;;6162031;23;20231;-85
2022/02/24 01:00:48;;;;;;;3.10;1.80;;;2.50;95.10;;;;;;6162585;23;20190;-85
2022/02/24 01:03:15;;;;;;;4.40;2.10;;;2.50;95.00;;;;;;6162606;23;20218;-85
2022/02/24 01:05:42;;;;;;;2.13;1.60;;;2.60;94.90;;;;;;6163071;23;20254;-85
2022/02/24 01:08:09;;;;;;;2.73;1.90;;;2.70;95.00;;;;;;6162974;23;20705;-85
2022/02/24 01:10:36;;;;;;;2.20;2.00;;;2.60;94.80;;;;;;6162325;23;20172;-86
2022/02/24 01:13:04;;;;;;;2.57;1.97;;;2.60;94.60;;;;;;6163111;23;20276;-85
2022/02/24 01:15:31;;;;;;;2.40;2.20;;;2.60;94.80;;;;;;6162689;23;20575;-85
2022/02/24 01:17:58;;;;;;;3.17;2.00;;;2.60;94.90;;;;;;6162071;23;20199;-85
2022/02/24 01:20:25;;;;;;;3.20;2.20;;;2.60;94.90;;;;;;6162764;23;20281;-85
2022/02/24 01:22:52;;;;;;;3.50;2.20;;;2.50;94.60;;;;;;6162153;23;20651;-85
2022/02/24 01:25:19;;;;;;;3.13;2.50;;;2.60;94.60;;;;;;6162430;23;20549;-85
2022/02/24 01:27:47;;;;;;;2.77;2.07;;;2.60;94.60;;;;;;6136912;23;20199;-85
2022/02/24 01:30:15;;;;;;;3.90;2.03;;;2.60;94.80;;;;;;6162691;23;20254;-86
2022/02/24 01:32:43;;;;;;;4.63;2.10;;;2.50;94.50;;;;;;6135772;23;20655;-85
2022/02/24 01:35:10;;;;;;;4.67;2.20;;;2.50;94.90;;;;;;6162684;23;20223;-85
2022/02/24 01:37:37;;;;;;;2.63;1.87;;;2.60;94.60;;;;;;6161713;23;20255;-85
2022/02/24 01:40:04;;;;;;;2.80;2.17;;;2.60;94.60;;;;;;6163218;23;20172;-85
2022/02/24 01:42:31;;;;;;;3.23;2.30;;;2.60;94.60;;;;;;6162052;23;20184;-85
2022/02/24 01:44:58;;;;;;;2.67;1.90;;;2.60;94.60;;;;;;6163013;23;20178;-85
2022/02/24 01:47:27;;;;;;;2.37;2.00;;;2.60;94.60;;;;;;6162428;23;20233;-85
2022/02/24 01:49:54;;;;;;;2.10;1.80;;;2.60;94.60;;;;;;6163389;23;20226;-85
2022/02/24 01:52:22;;;;;;;2.60;2.00;;;2.60;94.60;;;;;;6162462;23;20223;-85
2022/02/24 01:54:49;;;;;;;2.23;1.90;;;2.60;94.60;;;;;;6164164;23;20206;-85
2022/02/24 01:57:17;;;;;;;3.50;2.33;;;2.60;94.60;;;;;;6168181;23;20263;-85
2022/02/24 01:59:45;;;;;;;2.43;2.00;;;2.60;94.60;;;;;;6163049;23;20514;-85
2022/02/24 02:02:13;;;;;;;2.23;1.90;;;2.50;94.50;;;;;;6162583;23;20206;-85
2022/02/24 02:04:41;;;;;;;2.07;1.87;;;2.50;94.50;;;;;;6161481;23;20202;-86
2022/02/24 02:07:08;;;;;;;2.70;2.00;;;2.50;94.50;;;;;;6163049;23;20171;-85
2022/02/24 02:09:36;;;;;;;3.57;2.13;;;2.50;94.50;;;;;;6162063;23;20203;-85
2022/02/24 02:12:03;;;;;;;3.07;2.40;;;2.50;94.50;;;;;;6162352;23;20487;-85
2022/02/24 02:14:44;;;;;;;2.03;1.80;;;2.40;94.50;;;;;;6162377;23;20207;-85
2022/02/24 02:17:11;;;;;;;2.33;2.03;;;2.40;94.50;;;;;;6161458;23;20182;-85
2022/02/24 02:19:38;;;;;;;3.53;2.00;;;2.40;94.50;;;;;;6161421;23;20747;-85
2022/02/24 02:22:07;;;;;;;2.33;2.00;;;2.30;94.90;;;;;;6162008;23;20183;-85
2022/02/24 02:24:33;;;;;;;2.33;1.83;;;2.30;95.30;;;;;;6161398;23;20258;-85
2022/02/24 02:27:00;;;;;;;3.30;2.23;;;2.20;95.40;;;;;;6162187;23;20246;-84
2022/02/24 02:29:27;;;;;;;4.03;2.20;;;2.30;95.60;;;;;;6161502;23;20207;-84
2022/02/24 02:31:54;;;;;;;4.53;2.10;;;2.30;95.60;;;;;;6162548;23;20256;-84
2022/02/24 02:34:21;;;;;;;3.63;2.10;;;2.30;95.40;;;;;;6161664;23;20223;-86
2022/02/24 02:36:49;;;;;;;2.87;2.17;;;2.30;95.30;;;;;;6162223;23;20207;-84
2022/02/24 02:39:17;;;;;;;4.87;2.27;;;2.30;95.50;;;;;;6161404;23;20319;-85
2022/02/24 02:41:47;;;;;;;2.17;1.97;;;2.30;95.40;;;;;;6162272;23;20258;-85
2022/02/24 02:44:16;;;;;;;2.17;1.97;;;2.30;95.50;;;;;;6162274;23;20290;-85
2022/02/24 02:46:43;;;;;;;2.93;2.20;;;2.40;95.40;;;;;;6138305;23;20175;-85
2022/02/24 02:49:10;;;;;;;2.27;1.93;;;2.40;95.30;;;;;;6162284;23;20203;-85
2022/02/24 02:51:36;;;;;;;2.70;2.10;;;2.40;95.10;;;;;;6161839;23;20178;-85
2022/02/24 02:54:04;;;;;;;2.80;2.20;;;2.30;95.10;;;;;;6161056;23;20274;-84
2022/02/24 02:56:32;;;;;;;3.40;2.10;;;2.20;95.20;;;;;;6162855;23;20217;-85
2022/02/24 02:59:00;;;;;;;2.70;2.20;;;2.30;95.30;;;;;;6160928;23;20572;-87
2022/02/24 03:01:27;;;;;;;2.83;2.13;;;2.20;95.30;;;;;;6135561;23;20523;-84
2022/02/24 03:03:55;;;;;;;3.47;2.20;;;2.10;95.60;;;;;;6161683;23;20207;-84
2022/02/24 03:06:22;;;;;;;2.43;2.20;;;2.10;95.80;;;;;;6162078;23;20207;-85
2022/02/24 03:08:48;;;;;;;3.57;2.20;;;2.10;95.80;;;;;;6160785;23;20287;-85
2022/02/24 03:11:15;;;;;;;3.67;2.13;;;2.10;95.80;;;;;;6163055;23;20234;-84
2022/02/24 03:13:43;;;;;;;2.93;2.07;;;2.10;95.70;;;;;;6161320;23;20286;-85
2022/02/24 03:16:10;;;;;;;3.17;2.10;;;2.00;95.90;;;;;;6162236;23;20577;-85
2022/02/24 03:18:37;;;;;;;3.90;2.60;;;2.00;96.20;;;;;;6161281;23;20753;-85
2022/02/24 03:21:04;;;;;;;3.20;2.00;;;2.10;96.00;;;;;;6162540;23;20293;-84
2022/02/24 03:23:31;;;;;;;3.73;2.20;;;2.10;95.90;;;;;;6161437;23;20290;-85
2022/02/24 03:25:57;;;;;;;2.33;2.13;;;2.00;95.90;;;;;;6162225;23;20226;-85
2022/02/24 03:28:25;;;;;;;4.70;2.20;;;2.10;95.80;;;;;;6160403;23;20222;-85
2022/02/24 03:30:53;;;;;;;4.47;2.53;;;2.00;95.70;;;;;;6161811;23;20179;-85
2022/02/24 03:33:20;;;;;;;3.20;2.00;;;1.90;96.00;;;;;;6161417;23;20527;-85
2022/02/24 03:35:47;;;;;;;2.70;2.13;;;1.80;96.30;;;;;;6160988;23;20229;-85
2022/02/24 03:38:14;;;;;;;2.23;1.87;;;1.90;96.60;;;;;;6159910;23;20278;-85
2022/02/24 03:40:41;;;;;;;2.63;2.03;;;2.00;96.50;;;;;;6161230;23;20182;-85
2022/02/24 03:43:07;;;;;;;3.00;1.80;;;2.00;96.30;;;;;;6161900;23;20227;-85
2022/02/24 03:45:34;;;;;;;2.90;2.17;;;2.10;96.00;;;;;;6162098;23;20181;-84
2022/02/24 03:48:03;;;;;;;4.87;2.20;;;2.10;95.80;;;;;;6160760;23;20195;-85
2022/02/24 03:50:30;;;;;;;2.30;1.80;;;2.10;95.60;;;;;;6162598;23;20658;-85
2022/02/24 03:52:57;;;;;;;2.73;2.00;;;2.10;95.60;;;;;;6161032;23;20621;-85
2022/02/24 03:55:46;;;;;;;3.00;1.87;;;2.10;95.70;;;;;;6161311;23;20210;-84
2022/02/24 03:58:13;;;;;;;3.83;1.97;;;2.10;95.60;;;;;;6161392;23;20277;-85
2022/02/24 04:00:39;;;;;;;2.77;2.10;;;2.10;95.70;;;;;;6161754;23;20478;-85
2022/02/24 04:03:08;;;;;;;2.30;2.10;;;2.00;95.60;;;;;;6161457;23;20205;-85
2022/02/24 04:05:35;;;;;;;4.23;2.40;;;1.90;95.90;;;;;;6161886;23;20175;-84
2022/02/24 04:08:01;;;;;;;3.57;2.10;;;1.80;96.20;;;;;;6161430;23;20255;-85
2022/02/24 04:10:28;;;;;;;4.33;2.23;;;1.80;96.60;;;;;;6161157;23;20202;-85
2022/02/24 04:12:55;;;;;;;2.40;1.80;;;1.90;96.60;;;;;;6161709;23;20202;-85
2022/02/24 04:15:23;;;;;;;2.97;2.40;;;1.90;96.40;;;;;;6162226;23;20200;-84
2022/02/24 04:17:50;;;;;;;3.87;2.37;;;1.90;96.20;;;;;;6162520;23;20572;-85
2022/02/24 04:20:18;;;;;;;3.20;2.03;;;1.90;96.20;;;;;;6163784;23;20195;-85
2022/02/24 04:22:45;;;;;;;4.30;2.00;;;1.80;96.10;;;;;;6162981;23;20272;-84
2022/02/24 04:25:12;;;;;;;2.97;2.20;;;1.90;96.30;;;;;;6163695;23;20254;-85
2022/02/24 04:27:47;;;;;;;2.87;2.40;;;1.80;96.30;;;;;;6163616;23;20225;-84
2022/02/24 04:30:14;;;;;;;7.07;3.73;;;1.80;96.60;;;;;;6164589;23;20162;-85
2022/02/24 04:32:41;;;;;;;4.30;2.40;;;1.80;96.70;;;;;;6164321;23;20280;-85
2022/02/24 04:35:08;;;;;;;4.37;2.50;;;1.80;96.60;;;;;;6163759;23;20178;-84
2022/02/24 04:37:37;;;;;;;4.30;2.60;;;1.70;96.70;;;;;;6166594;23;20226;-85
2022/02/24 04:40:05;;;;;;;5.87;3.23;;;1.60;97.00;;;;;;6163810;23;20182;-86
2022/02/24 04:42:32;;;;;;;8.83;4.73;;;1.70;97.10;;;;;;6163026;23;20199;-85
2022/02/24 04:44:59;;;;;;;14.00;6.40;;;1.80;97.00;;;;;;6163030;23;20179;-85
2022/02/24 04:47:59;;;;;;;7.17;3.80;;;1.90;96.60;;;;;;6162723;23;20163;-85
2022/02/24 04:50:26;;;;;;;9.23;4.80;;;1.90;96.20;;;;;;6163340;23;20214;-85
2022/02/24 04:52:54;;;;;;;12.27;4.73;;;1.90;96.20;;;;;;6161956;23;20258;-85
2022/02/24 04:55:21;;;;;;;6.10;3.60;;;1.80;96.00;;;;;;6163126;23;20227;-87
2022/02/24 04:57:48;;;;;;;7.80;4.10;;;1.70;96.40;;;;;;6161869;23;20276;-86
2022/02/24 05:00:16;;;;;;;6.77;3.63;;;1.70;96.50;;;;;;6163000;23;20195;-85
2022/02/24 05:02:43;;;;;;;6.23;3.40;;;1.70;96.50;;;;;;6162444;23;20196;-85
2022/02/24 05:05:10;;;;;;;4.47;2.80;;;1.70;96.50;;;;;;6162278;23;20170;-84
2022/02/24 05:07:37;;;;;;;4.07;2.80;;;1.80;96.50;;;;;;6162801;23;20252;-84
2022/02/24 05:10:08;;;;;;;4.20;2.50;;;1.80;96.40;;;;;;6162696;23;20250;-84
2022/02/24 05:12:35;;;;;;;5.00;2.50;;;1.90;96.40;;;;;;6162877;23;20202;-85
2022/02/24 05:15:01;;;;;;;3.03;2.20;;;1.80;96.30;;;;;;6163036;23;20202;-84
2022/02/24 05:17:28;;;;;;;3.53;2.40;;;1.90;96.50;;;;;;6162033;23;20270;-85
2022/02/24 05:19:55;;;;;;;10.37;5.57;;;1.90;96.40;;;;;;6163264;23;20203;-84
2022/02/24 05:22:22;;;;;;;2.43;2.23;;;1.90;96.40;;;;;;6161318;23;20186;-84
2022/02/24 05:24:51;;;;;;;2.97;2.00;;;1.90;96.20;;;;;;6162680;23;20213;-84
2022/02/24 05:27:19;;;;;;;3.27;2.37;;;1.90;96.00;;;;;;6161797;23;20198;-87
2022/02/24 05:29:53;;;;;;;3.10;2.30;;;1.90;96.00;;;;;;6162631;23;20159;-84
2022/02/24 05:32:20;;;;;;;2.60;1.90;;;1.80;96.00;;;;;;6161781;23;20164;-85
2022/02/24 05:34:47;;;;;;;3.47;1.97;;;1.80;96.20;;;;;;6161924;23;20639;-84
2022/02/24 05:37:14;;;;;;;2.20;2.00;;;1.80;96.20;;;;;;6161401;23;20222;-86
2022/02/24 05:39:41;;;;;;;2.33;2.10;;;1.80;96.10;;;;;;6161609;23;20203;-84
2022/02/24 05:42:08;;;;;;;2.30;1.80;;;1.80;96.10;;;;;;6162070;23;20179;-85
2022/02/24 05:44:36;;;;;;;6.20;4.23;;;1.70;95.90;;;;;;6161950;23;20203;-84
2022/02/24 05:47:03;;;;;;;3.37;2.03;;;1.70;96.20;;;;;;6162471;23;20198;-84
2022/02/24 05:49:30;;;;;;;5.27;2.17;;;1.70;96.20;;;;;;6160806;23;20211;-85
2022/02/24 05:51:57;;;;;;;3.80;2.10;;;1.70;96.10;;;;;;6161832;23;20203;-85
2022/02/24 05:54:24;;;;;;;3.10;1.90;;;1.60;96.10;;;;;;6159471;23;20266;-84
2022/02/24 05:56:50;;;;;;;4.50;2.30;;;1.60;96.30;;;;;;6161769;23;20199;-86
2022/02/24 05:59:17;;;;;;;2.70;2.10;;;1.50;96.50;;;;;;6161480;23;20209;-84
2022/02/24 06:01:46;;;;;;;3.13;2.10;;;1.50;96.80;;;;;;6161757;23;20266;-84
2022/02/24 06:04:13;;;;;;;3.07;1.80;;;1.60;97.00;;;;;;6161569;23;20251;-84
2022/02/24 06:06:40;;;;;;;3.93;2.17;;;1.70;96.80;;;;;;6162063;23;20243;-84
2022/02/24 06:09:07;;;;;;;2.33;2.03;;;1.70;96.50;;;;;;6159752;23;20202;-83
2022/02/24 06:11:34;;;;;;;2.23;1.90;;;1.70;96.70;;;;;;6160337;23;20177;-84
2022/02/24 06:14:01;;;;;;;2.97;1.70;;;1.70;96.60;;;;;;6159661;23;20207;-84
2022/02/24 06:16:28;;;;;;;3.70;2.10;;;1.80;96.60;;;;;;6160262;23;20677;-83
2022/02/24 06:18:56;;;;;;;2.97;1.70;;;1.80;96.50;;;;;;6158365;23;20250;-83
2022/02/24 06:21:23;;;;;;;2.43;1.60;;;1.90;96.40;;;;;;6160701;23;20171;-83
2022/02/24 06:23:50;;;;;;;2.57;1.80;;;2.00;96.30;;;;;;6158704;23;20255;-87
2022/02/24 06:26:17;;;;;;;2.20;1.60;;;2.10;96.20;;;;;;6160375;23;20230;-85
2022/02/24 06:28:45;;;;;;;4.57;1.50;;;2.10;96.10;;;;;;6160123;23;20286;-85
2022/02/24 06:31:12;;;;;;;2.70;1.60;;;2.20;96.10;;;;;;6161202;23;20199;-84
2022/02/24 06:33:39;;;;;;;1.57;1.33;;;2.40;95.80;;;;;;6161072;23;20223;-86
2022/02/24 06:36:08;;;;;;;1.50;1.40;;;2.50;95.40;;;;;;6161004;23;20194;-86
2022/02/24 06:38:39;;;;;;;1.77;1.50;;;2.50;95.20;;;;;;6158073;23;20226;-85
2022/02/24 06:41:07;;;;;;;4.30;1.90;;;2.60;95.20;;;;;;6158879;23;20170;-84
2022/02/24 06:43:35;;;;;;;4.30;1.60;;;2.60;95.10;;;;;;6156400;23;20282;-84
2022/02/24 06:46:01;;;;;;;3.17;1.60;;;2.80;94.60;;;;;;6160107;23;20243;-84
2022/02/24 06:48:29;;;;;;;2.33;1.60;;;2.80;94.60;;;;;;6158673;23;20222;-83
2022/02/24 06:50:56;;;;;;;1.67;1.57;;;2.80;94.60;;;;;;6158927;23;20223;-84
2022/02/24 06:53:26;;;;;;;1.70;1.20;;;2.80;94.70;;;;;;6159348;23;20195;-84
2022/02/24 06:55:52;;;;;;;2.07;1.40;;;2.90;94.60;;;;;;6158397;23;20246;-85
2022/02/24 06:58:19;;;;;;;1.80;1.60;;;3.00;94.60;;;;;;6158935;23;20222;-85
2022/02/24 07:00:46;;;;;;;2.90;1.60;;;3.10;94.70;;;;;;6159519;23;20171;-84
2022/02/24 07:03:13;;;;;;;4.77;1.60;;;3.30;94.30;;;;;;6161387;23;20651;-86
2022/02/24 07:05:40;;;;;;;5.67;1.57;;;3.40;93.60;;;;;;6161137;23;20409;-83
2022/02/24 07:08:07;;;;;;;2.07;1.70;;;3.50;93.70;;;;;;6161214;23;20225;-81
2022/02/24 07:10:35;;;;;;;3.10;1.50;;;3.40;93.70;;;;;;6161053;23;20210;-82
2022/02/24 07:13:02;;;;;;;5.40;1.70;;;3.60;93.70;;;;;;6159775;23;20265;-83
2022/02/24 07:15:29;;;;;;;2.43;1.57;;;3.80;93.20;;;;;;6160064;23;20198;-82
2022/02/24 07:17:55;;;;;;;4.37;1.70;;;4.00;92.70;;;;;;6158776;23;20199;-82
2022/02/24 07:20:22;;;;;;;3.40;1.70;;;4.10;92.20;;;;;;6158303;23;20257;-82
2022/02/24 07:22:49;;;;;;;3.10;1.50;;;4.20;92.20;;;;;;6157125;23;20282;-82
2022/02/24 07:25:16;;;;;;;2.63;1.80;;;4.40;91.80;;;;;;6157247;23;20180;-82
2022/02/24 07:27:45;;;;;;;3.80;1.67;;;4.50;91.40;;;;;;6157362;23;20257;-82
2022/02/24 07:30:14;;;;;;;3.60;2.10;;;4.70;91.20;;;;;;6158281;23;20250;-81
2022/02/24 07:32:41;;;;;;;4.30;2.13;;;4.70;91.00;;;;;;6158902;23;20199;-82
2022/02/24 07:35:09;;;;;;;5.30;2.60;;;4.90;91.00;;;;;;6161391;23;20263;-81
2022/02/24 07:37:36;;;;;;;3.67;2.77;;;5.10;90.90;;;;;;6164241;23;20187;-85
2022/02/24 07:40:04;;;;;;;5.43;2.60;;;5.20;90.70;;;;;;6169446;23;20258;-85
2022/02/24 07:42:34;;;;;;;3.63;2.20;;;5.20;90.30;;;;;;6160930;23;20187;-85
2022/02/24 07:45:03;;;;;;;2.30;1.90;;;5.40;89.40;;;;;;6164596;23;20183;-84
2022/02/24 07:47:30;;;;;;;2.80;2.00;;;5.80;89.80;;;;;;6163194;23;20384;-84
2022/02/24 07:49:58;;;;;;;3.90;2.30;;;6.10;85.70;;;;;;6165290;23;20202;-84
2022/02/24 07:52:25;;;;;;;4.53;2.60;;;6.30;85.40;;;;;;6139434;23;20191;-84
2022/02/24 07:54:54;;;;;;;4.93;2.08;;;6.60;83.60;;;;;;6165718;23;20479;-84
2022/02/24 08:04:10;;;;;;;3.33;2.17;;;7.00;79.50;;;;;;6166133;23;20226;-84
2022/02/24 08:06:37;;;;;;;4.85;1.75;;;7.30;77.30;;;;;;6167234;23;20215;-84
2022/02/24 08:09:06;;;;;;;4.07;1.98;;;7.20;77.10;;;;;;6167959;23;20203;-84
2022/02/24 08:11:33;;;;;;;4.63;2.10;;;7.50;75.60;;;;;;6167872;23;20183;-84
2022/02/24 08:14:00;;;;;;;2.55;1.70;;;7.80;76.70;;;;;;6166845;23;20203;-84
2022/02/24 08:16:27;;;;;;;3.38;1.83;;;8.20;73.00;;;;;;6167711;23;20528;-84
2022/02/24 08:19:00;;;;;;;3.28;1.80;;;8.30;69.50;;;;;;6168157;23;20195;-84
2022/02/24 08:22:20;;;;;;;2.45;1.70;;;8.30;71.00;;;;;;6169105;23;20188;-85
2022/02/24 08:27:51;;;;;;;3.70;1.70;;;8.50;63.40;;;;;;6047881;23;20686;-84
2022/02/24 08:33:40;;;;;;;3.25;1.60;;;8.80;63.60;;;;;;6048391;23;20264;-84
2022/02/24 08:36:09;;;;;;;2.08;1.48;;;9.00;58.40;;;;;;6048950;23;20185;-85
2022/02/24 08:45:37;;;;;;;1.38;1.25;;;9.60;52.80;;;;;;6077111;23;20254;-87
2022/02/24 09:29:41;;;;;;;5.00;1.63;;;18.60;19.10;;;;;;6193537;23;20174;-88
2022/02/24 09:32:39;;;;;;;3.28;1.70;;;19.60;16.00;;;;;;6196436;23;20659;-86
2022/02/24 09:35:09;;;;;;;4.20;1.92;;;20.70;15.20;;;;;;6188590;23;20263;-89
2022/02/24 09:37:36;;;;;;;3.95;2.15;;;21.10;13.80;;;;;;6189730;23;20195;-88
2022/02/24 09:40:04;;;;;;;5.00;1.90;;;21.70;12.80;;;;;;6163388;23;20179;-88
2022/02/24 09:42:34;;;;;;;4.07;2.00;;;21.60;12.00;;;;;;6189909;23;20665;-84
2022/02/24 09:45:01;;;;;;;4.70;2.05;;;20.90;13.90;;;;;;6190222;23;20182;-86
2022/02/24 09:47:31;;;;;;;2.50;2.08;;;20.50;15.00;;;;;;6188214;23;20213;-87
2022/02/24 09:50:00;;;;;;;6.43;2.15;;;19.90;15.60;;;;;;6189397;23;20349;-87
2022/02/24 09:52:27;;;;;;;3.97;2.30;;;18.70;16.20;;;;;;6189085;23;20233;-84
2022/02/24 09:55:10;;;;;;;2.10;1.85;;;19.30;17.30;;;;;;6195019;23;20186;-85
2022/02/24 09:57:38;;;;;;;3.15;1.77;;;19.70;15.80;;;;;;6193975;23;20186;-84
2022/02/24 10:00:07;;;;;;;4.97;1.88;;;19.70;16.10;;;;;;6197625;23;20450;-84
2022/02/24 10:02:35;;;;;;;4.93;2.13;;;20.30;16.00;;;;;;6197898;23;20249;-85
2022/02/24 10:05:08;;;;;;;4.43;1.70;;;20.80;14.80;;;;;;6201924;23;20201;-83
2022/02/24 10:07:37;;;;;;;4.28;2.03;;;21.80;14.30;;;;;;6208583;23;20621;-83
2022/02/24 10:10:22;;;;;;;2.80;2.13;;;22.50;12.60;;;;;;6196848;23;20535;-84
2022/02/24 10:13:03;;;;;;;3.28;2.08;;;22.50;12.60;;;;;;6191962;23;20217;-83
2022/02/24 10:15:31;;;;;;;4.65;1.80;;;23.00;12.90;;;;;;6197022;23;20554;-82
2022/02/24 10:18:29;;;;;;;2.42;1.90;;;22.50;12.60;;;;;;6194845;23;20202;-82
2022/02/24 10:21:05;;;;;;;2.20;1.73;;;22.40;12.50;;;;;;6186378;23;20569;-85
2022/02/24 10:23:34;;;;;;;2.97;1.70;;;22.50;12.50;;;;;;6193480;23;20233;-84
2022/02/24 10:26:04;;;;;;;3.50;1.77;;;22.70;11.40;;;;;;6192152;23;20485;-85
2022/02/24 10:28:39;;;;;;;2.05;1.75;;;21.10;11.70;;;;;;6189013;23;20174;-84
2022/02/24 10:31:08;;;;;;;2.40;1.60;;;19.60;13.40;;;;;;6190460;23;20174;-84
2022/02/24 10:33:36;;;;;;;3.83;1.50;;;19.70;14.40;;;;;;6188535;23;20198;-84
2022/02/24 10:36:14;;;;;;;1.45;1.33;;;19.80;12.90;;;;;;6190882;23;20519;-84
2022/02/24 10:38:43;;;;;;;1.55;1.38;;;19.80;13.10;;;;;;6192528;23;20206;-84
2022/02/24 10:41:11;;;;;;;2.17;1.50;;;20.00;13.10;;;;;;6195287;23;20163;-83
2022/02/24 10:43:40;;;;;;;1.58;1.30;;;19.80;13.00;;;;;;6194811;23;20572;-85
2022/02/24 10:46:48;;;;;;;1.83;1.35;;;19.20;14.20;;;;;;6197763;23;20163;-85
2022/02/24 10:54:58;;;;;;;1.63;1.52;;;19.10;14.10;;;;;;6085240;23;20165;-91
2022/02/24 10:57:28;;;;;;;2.25;1.63;;;19.00;15.20;;;;;;6188766;23;20198;-90
2022/02/24 11:02:39;;;;;;;3.40;1.83;;;19.10;14.60;;;;;;6191987;23;20166;-90
2022/02/24 11:05:07;;;;;;;3.80;1.50;;;19.10;15.50;;;;;;6164281;23;20221;-91
2022/02/24 11:07:35;;;;;;;4.03;1.90;;;19.20;14.50;;;;;;6139285;23;20178;-90
2022/02/24 11:10:02;;;;;;;3.65;1.50;;;18.70;16.30;;;;;;6192096;23;20261;-91
2022/02/24 11:12:30;;;;;;;1.70;1.60;;;18.50;16.50;;;;;;6191335;23;20178;-91
2022/02/24 11:14:59;;;;;;;2.15;1.60;;;18.50;16.80;;;;;;6161684;23;20170;-89
2022/02/24 11:17:27;;;;;;;2.50;1.77;;;18.40;17.10;;;;;;6165754;23;20191;-90
2022/02/24 11:19:56;;;;;;;2.08;1.67;;;18.60;16.70;;;;;;6195418;23;20174;-89
2022/02/24 11:22:24;;;;;;;5.80;1.85;;;18.80;16.40;;;;;;6199688;23;20181;-90
2022/02/24 11:59:48;;;;;;;3.10;1.40;;;15.30;20.40;;;;;;6204787;23;20241;-86
2022/02/24 12:02:21;;;;;;;2.47;1.48;;;15.30;21.80;;;;;;6206502;23;20170;-87
2022/02/24 12:05:50;;;;;;;2.85;1.35;;;15.60;19.50;;;;;;6172322;23;20190;-89
2022/02/24 12:49:12;;;;;;;4.65;1.70;;;15.40;19.80;;;;;;5868834;24;20178;-86
2022/02/24 12:54:44;;;;;;;1.52;1.33;;;15.20;19.40;;;;;;6005671;23;20206;-86
2022/02/24 12:57:16;;;;;;;3.28;1.35;;;15.10;19.30;;;;;;6084516;23;20224;-85
2022/02/24 13:09:48;;;;;;;3.20;1.23;;;14.60;19.40;;;;;;5966866;24;20212;-85
2022/02/24 13:12:17;;;;;;;2.42;1.60;;;14.70;19.70;;;;;;6001398;23;20177;-85
2022/02/24 13:32:54;;;;;;;2.72;1.30;;;14.60;19.90;;;;;;6109084;23;20184;-85
2022/02/24 13:35:41;;;;;;;2.22;1.52;;;14.50;18.40;;;;;;6118300;23;20188;-85
2022/02/24 13:38:10;;;;;;;1.83;1.20;;;14.60;18.70;;;;;;6175342;23;20351;-85
2022/02/24 13:47:51;;;;;;;2.03;1.40;;;14.60;19.80;;;;;;6200804;23;20159;-85
2022/02/24 14:13:53;;;;;;;6.18;2.25;;;14.20;21.70;;;;;;6199623;23;20205;-85
2022/02/24 14:16:21;;;;;;;3.15;1.58;;;14.10;21.20;;;;;;6197680;23;20207;-86
2022/02/24 14:22:17;;;;;;;3.72;1.40;;;13.60;20.20;;;;;;6188951;23;20174;-85
2022/02/24 14:35:23;;;;;;;4.28;1.67;;;13.00;21.60;;;;;;6195082;23;20283;-89
2022/02/24 14:38:38;;;;;;;5.28;1.70;;;13.00;21.30;;;;;;6178886;23;20205;-86
2022/02/24 14:41:06;;;;;;;5.68;1.67;;;13.10;22.40;;;;;;6202234;23;20163;-88
2022/02/24 15:04:44;;;;;;;4.80;1.70;;;12.80;24.50;;;;;;6053141;23;20197;-86
2022/02/24 15:25:31;;;;;;;2.65;1.50;;;12.60;25.80;;;;;;5967470;23;20181;-90
2022/02/24 15:28:57;;;;;;;5.38;1.55;;;12.50;25.70;;;;;;6029372;23;20206;-88
2022/02/24 15:38:38;;;;;;;3.08;1.73;;;12.20;25.50;;;;;;6054276;23;20266;-89
2022/02/24 15:41:05;;;;;;;4.07;1.80;;;12.10;25.40;;;;;;6028174;23;20200;-88
2022/02/24 15:44:38;;;;;;;4.03;1.98;;;12.00;25.40;;;;;;6054166;23;20201;-91
2022/02/24 15:50:56;;;;;;;5.32;2.15;;;11.80;25.10;;;;;;6025034;23;20238;-86
2022/02/24 15:57:26;;;;;;;3.15;1.85;;;11.60;25.00;;;;;;6011727;23;20174;-88
2022/02/24 16:00:24;;;;;;;3.45;1.58;;;11.70;25.80;;;;;;5995371;23;20206;-88
2022/02/24 16:03:46;;;;;;;2.75;1.67;;;11.70;25.40;;;;;;6052506;23;20205;-89
2022/02/24 16:10:31;;;;;;;3.28;1.70;;;11.40;27.40;;;;;;6154443;23;20279;-87
2022/02/24 16:16:24;;;;;;;5.88;2.20;;;11.40;27.70;;;;;;6063624;23;20181;-87
2022/02/24 16:18:51;;;;;;;4.95;2.15;;;11.30;27.70;;;;;;6174690;23;20206;-88
2022/02/24 16:21:21;;;;;;;2.38;1.70;;;11.30;28.20;;;;;;6175418;23;20175;-89
2022/02/24 16:23:48;;;;;;;4.85;1.80;;;11.20;28.00;;;;;;6175692;23;20206;-86
2022/02/24 16:26:16;;;;;;;2.70;1.70;;;11.10;29.10;;;;;;6175626;23;20603;-88
2022/02/24 16:28:51;;;;;;;3.78;1.80;;;11.10;29.40;;;;;;6170154;23;20210;-87
2022/02/24 16:31:29;;;;;;;4.47;1.92;;;11.00;29.60;;;;;;6148798;23;20203;-87
2022/02/24 16:43:16;;;;;;;3.47;1.83;;;10.90;30.30;;;;;;6080312;23;20201;-88
2022/02/24 16:45:55;;;;;;;3.65;1.85;;;10.90;29.90;;;;;;6097643;23;20171;-86
2022/02/24 16:54:47;;;;;;;6.07;1.98;;;10.70;31.70;;;;;;6195978;23;20225;-88
2022/02/24 16:57:24;;;;;;;4.28;1.90;;;10.50;31.80;;;;;;6195984;23;20167;-89
2022/02/24 16:59:56;;;;;;;4.13;1.80;;;10.60;31.20;;;;;;6190751;23;20202;-86
2022/02/24 17:02:24;;;;;;;5.07;2.10;;;10.70;31.60;;;;;;6172218;23;20179;-88
2022/02/24 17:04:52;;;;;;;3.65;1.95;;;10.70;31.30;;;;;;6168460;23;20213;-87
2022/02/24 17:07:30;;;;;;;3.47;1.70;;;10.70;31.00;;;;;;6197382;23;20175;-87
2022/02/24 17:10:00;;;;;;;4.22;1.80;;;10.70;31.20;;;;;;6170169;23;20650;-86
2022/02/24 17:12:28;;;;;;;6.22;2.22;;;10.60;31.60;;;;;;6198377;23;20167;-87
2022/02/24 17:14:55;;;;;;;3.67;2.20;;;10.60;32.20;;;;;;6173810;23;20175;-86
2022/02/24 17:17:24;;;;;;;6.28;2.20;;;10.60;33.30;;;;;;6198541;23;20167;-88
2022/02/24 17:19:51;;;;;;;3.15;1.73;;;10.50;32.50;;;;;;6185587;23;20203;-86
2022/02/24 17:22:25;;;;;;;7.45;1.85;;;10.50;32.50;;;;;;6199343;23;20169;-86
2022/02/24 17:24:52;;;;;;;6.63;2.05;;;10.40;32.00;;;;;;6197281;23;20222;-86
2022/02/24 17:27:44;;;;;;;4.45;2.13;;;10.40;32.90;;;;;;6197627;23;20167;-86
2022/02/24 17:30:12;;;;;;;5.28;1.92;;;10.30;33.20;;;;;;6151107;23;20246;-87
2022/02/24 17:32:40;;;;;;;6.20;2.10;;;10.30;33.40;;;;;;6197403;23;20187;-86
2022/02/24 17:35:10;;;;;;;5.00;1.83;;;10.20;33.90;;;;;;6174902;23;20170;-86
2022/02/24 17:41:21;;;;;;;3.90;2.10;;;10.40;32.90;;;;;;6198713;23;20230;-87
2022/02/24 17:43:50;;;;;;;4.32;1.85;;;10.30;34.00;;;;;;6196933;23;20174;-86
2022/02/24 17:46:18;;;;;;;6.25;2.17;;;10.20;34.60;;;;;;6197573;23;20219;-87
2022/02/24 17:48:48;;;;;;;4.88;2.10;;;10.10;34.50;;;;;;6175095;23;20281;-87
2022/02/24 17:51:16;;;;;;;4.53;1.98;;;10.10;34.60;;;;;;6170963;23;20178;-88
2022/02/24 17:53:43;;;;;;;5.25;2.30;;;10.10;35.10;;;;;;6199085;23;20210;-88
2022/02/24 17:56:10;;;;;;;3.22;2.00;;;10.10;35.80;;;;;;6200930;23;20203;-89
2022/02/24 17:58:38;;;;;;;5.75;2.08;;;10.00;35.40;;;;;;6196853;23;20222;-89
2022/02/24 18:01:06;;;;;;;3.13;2.13;;;10.00;35.50;;;;;;6194673;23;20229;-89
2022/02/24 18:03:33;;;;;;;3.42;1.95;;;10.00;35.80;;;;;;6197018;23;20254;-86
2022/02/24 18:06:00;;;;;;;5.75;2.30;;;9.90;37.80;;;;;;6200610;23;20255;-86
2022/02/24 18:08:27;;;;;;;5.78;1.98;;;9.80;38.30;;;;;;6200468;23;20269;-87
2022/02/24 18:10:55;;;;;;;4.53;2.30;;;9.80;38.90;;;;;;6203023;23;20171;-88